HISTORICAL SENSOR DATA

Sensor Data Report

DB LIVE
CURRENT TIME--:--:--
DEVICE NETWORK Gateway Status
13 ESP · realtime ~1s · history 60s
Weather WS-MOD-01
ONLINE
Actuator ACT-MOD-01
OFFLINE
Mainboard L3 MB-L3-01
ONLINE
Mainboard L5 MB-L5-01
ONLINE
Remote AC AC-REMOTE-01
ONLINE
PZEM L3-01 PWR-L3-01
OFFLINE
PZEM L3-02 PWR-L3-02
OFFLINE
PZEM L3-03 PWR-L3-03
OFFLINE
PZEM L3-04 PWR-L3-04
OFFLINE
PZEM L5-01 PWR-L5-01
ONLINE
PZEM L5-02 PWR-L5-02
ONLINE
PZEM L5-03 PWR-L5-03
OFFLINE
PZEM L5-04 PWR-L5-04
OFFLINE
REPORT FILTER

Periode & Sensor

DATABASE HISTORY
RESET
QUICK RANGE Hari ini 7 hari 30 hari
PERIODE31 Aug 2026sampai 06 Sep 2026
TOTAL DATA58,686sensor readings
MINIMUM-0.50sesuai filter
AVERAGE92.53sesuai filter
MAXIMUM32,564.20sesuai filter
REPORT RESULT

Data Sensor

31/08/2026 — 06/09/2026 EXPORT CSV
NOTANGGALWAKTUDEVICECHANNELSENSORVALUEUNIT
2801 06/09/2026 21:01:00 MB-L3-01Mainboard Lantai 3 L3-SHT-01-RH SHT20 1 Humidity 44.70 %RH
2802 06/09/2026 21:01:00 MB-L3-01Mainboard Lantai 3 L3-SHT-01-T SHT20 1 Temperature 29.30 °C
2803 06/09/2026 21:01:00 MB-L5-01Mainboard Lantai 5 L5-HFT-01 Heat Flow Temperature 1 25.30 °C
2804 06/09/2026 21:01:00 AC-REMOTE-01Remote AC AC-POWER AC Power State 1.00 state
2805 06/09/2026 21:01:00 MB-L5-01Mainboard Lantai 5 L5-BGT-01 Black Globe Temperature 1 27.40 °C
2806 06/09/2026 21:01:00 MB-L5-01Mainboard Lantai 5 L5-RAD-01 Radiation 1 1.00 W/m²
2807 06/09/2026 21:01:00 MB-L3-01Mainboard Lantai 3 L3-AI-06 Analog Input 6 3.12 V
2808 06/09/2026 21:01:00 MB-L3-01Mainboard Lantai 3 L3-SHT-02-RH SHT20 2 Humidity 44.30 %RH
2809 06/09/2026 21:01:00 AC-REMOTE-01Remote AC AC-SETPOINT AC Set Temperature 23.00 °C
2810 06/09/2026 21:01:00 MB-L5-01Mainboard Lantai 5 L5-AI-01 Analog Input 1 3.05 V
2811 06/09/2026 21:01:00 PWR-L5-01Power Meter L5 PZEM 01 PZEM-L5-01-ENERGY PZEM L5-01 Energy 0.03 kWh
2812 06/09/2026 21:01:00 MB-L5-01Mainboard Lantai 5 L5-SHT-02-RH SHT20 2 Humidity 44.10 %RH
2813 06/09/2026 21:01:00 MB-L3-01Mainboard Lantai 3 L3-AI-03 Analog Input 3 3.12 V
2814 06/09/2026 21:01:00 AC-REMOTE-01Remote AC AC-MODE AC Operating Mode 1.00 code
2815 06/09/2026 21:01:00 AC-REMOTE-01Remote AC AC-FAN AC Fan Speed 0.00 code
2816 06/09/2026 21:01:00 MB-L3-01Mainboard Lantai 3 L3-LUX-02 Illuminance / LUX 2 0.30 lux
2817 06/09/2026 21:01:00 WS-MOD-01Weather Station Module WS-TEMP Suhu Udara 21.20 °C
2818 06/09/2026 21:01:00 PWR-L5-02Power Meter L5 PZEM 02 PZEM-L5-02-FREQ PZEM L5-02 Frequency 50.00 Hz
2819 06/09/2026 21:01:00 PWR-L5-02Power Meter L5 PZEM 02 PZEM-L5-02-VOLT PZEM L5-02 Voltage 227.00 V
2820 06/09/2026 21:01:00 MB-L5-01Mainboard Lantai 5 L5-AI-06 Analog Input 6 3.05 V
2821 06/09/2026 21:01:00 MB-L5-01Mainboard Lantai 5 L5-RAD-02 Radiation 2 1.00 W/m²
2822 06/09/2026 21:01:00 MB-L3-01Mainboard Lantai 3 L3-LUX-03 Illuminance / LUX 3 0.30 lux
2823 06/09/2026 21:01:00 PWR-L5-01Power Meter L5 PZEM 01 PZEM-L5-01-FREQ PZEM L5-01 Frequency 50.00 Hz
2824 06/09/2026 21:01:00 MB-L5-01Mainboard Lantai 5 L5-BGT-03 Black Globe Temperature 3 27.10 °C
2825 06/09/2026 21:01:00 MB-L5-01Mainboard Lantai 5 L5-SHT-03-T SHT20 3 Temperature 29.50 °C
2826 06/09/2026 21:01:00 MB-L5-01Mainboard Lantai 5 L5-SHT-01-T SHT20 1 Temperature 29.40 °C
2827 06/09/2026 21:01:00 MB-L5-01Mainboard Lantai 5 L5-AI-03 Analog Input 3 3.05 V
2828 06/09/2026 21:01:00 WS-MOD-01Weather Station Module WS-DIR Arah Angin 127.40 °
2829 06/09/2026 21:01:00 MB-L5-01Mainboard Lantai 5 L5-ST-02 Surface Temperature 2 25.20 °C
2830 06/09/2026 21:01:00 MB-L5-01Mainboard Lantai 5 L5-SHT-01-RH SHT20 1 Humidity 44.70 %RH
2831 06/09/2026 21:01:00 MB-L3-01Mainboard Lantai 3 L3-AI-05 Analog Input 5 3.12 V
2832 06/09/2026 21:01:00 MB-L3-01Mainboard Lantai 3 L3-AI-02 Analog Input 2 3.12 V
2833 06/09/2026 21:01:00 WS-MOD-01Weather Station Module WS-WIND Kecepatan Angin 4.11 m/s
2834 06/09/2026 21:01:00 MB-L3-01Mainboard Lantai 3 L3-LUX-06 Illuminance / LUX 6 0.30 lux
2835 06/09/2026 21:01:00 PWR-L5-02Power Meter L5 PZEM 02 PZEM-L5-02-ENERGY PZEM L5-02 Energy 0.04 kWh
2836 06/09/2026 21:01:00 PWR-L5-01Power Meter L5 PZEM 01 PZEM-L5-01-PF PZEM L5-01 Power Factor 0.39
2837 06/09/2026 21:01:00 MB-L3-01Mainboard Lantai 3 L3-LUX-05 Illuminance / LUX 5 0.40 lux
2838 06/09/2026 21:01:00 MB-L3-01Mainboard Lantai 3 L3-SHT-02-T SHT20 2 Temperature 29.30 °C
2839 06/09/2026 21:01:00 PWR-L5-01Power Meter L5 PZEM 01 PZEM-L5-01-VOLT PZEM L5-01 Voltage 227.10 V
2840 06/09/2026 21:01:00 MB-L5-01Mainboard Lantai 5 L5-SHT-03-RH SHT20 3 Humidity 44.70 %RH
2841 06/09/2026 21:01:00 MB-L3-01Mainboard Lantai 3 L3-SHT-03-RH SHT20 3 Humidity 44.30 %RH
2842 06/09/2026 21:01:00 MB-L5-01Mainboard Lantai 5 L5-LUX-03 Illuminance / LUX 3 0.20 lux
2843 06/09/2026 21:01:00 MB-L5-01Mainboard Lantai 5 L5-LUX-02 Illuminance / LUX 2 0.20 lux
2844 06/09/2026 21:01:00 MB-L5-01Mainboard Lantai 5 L5-AI-05 Analog Input 5 3.05 V
2845 06/09/2026 21:01:00 MB-L5-01Mainboard Lantai 5 L5-LUX-01 Illuminance / LUX 1 0.10 lux
2846 06/09/2026 21:01:00 MB-L3-01Mainboard Lantai 3 L3-LUX-01 Illuminance / LUX 1 0.30 lux
2847 06/09/2026 21:01:00 MB-L3-01Mainboard Lantai 3 L3-RAD-02 Radiation 2 0.00 W/m²
2848 06/09/2026 21:01:00 MB-L5-01Mainboard Lantai 5 L5-HFT-02 Heat Flow Temperature 2 24.90 °C
2849 06/09/2026 21:01:00 MB-L5-01Mainboard Lantai 5 L5-BGT-02 Black Globe Temperature 2 27.40 °C
2850 06/09/2026 21:01:00 WS-MOD-01Weather Station Module WS-PRES Tekanan Udara 912.00 hPa
2851 06/09/2026 21:01:00 MB-L5-01Mainboard Lantai 5 L5-AI-02 Analog Input 2 3.05 V
2852 06/09/2026 21:01:00 PWR-L5-02Power Meter L5 PZEM 02 PZEM-L5-02-POWER PZEM L5-02 Active Power 0.00 W
2853 06/09/2026 21:01:00 PWR-L5-01Power Meter L5 PZEM 01 PZEM-L5-01-CURR PZEM L5-01 Current 0.12 A
2854 06/09/2026 21:01:00 MB-L3-01Mainboard Lantai 3 L3-AI-04 Analog Input 4 3.12 V
2855 06/09/2026 21:01:00 MB-L5-01Mainboard Lantai 5 L5-SHT-02-T SHT20 2 Temperature 29.70 °C
2856 06/09/2026 21:00:00 MB-L3-01Mainboard Lantai 3 L3-LUX-04 Illuminance / LUX 4 0.20 lux
2857 06/09/2026 21:00:00 MB-L5-01Mainboard Lantai 5 L5-LUX-06 Illuminance / LUX 6 0.10 lux
2858 06/09/2026 21:00:00 MB-L3-01Mainboard Lantai 3 L3-SHT-01-RH SHT20 1 Humidity 44.60 %RH
2859 06/09/2026 21:00:00 MB-L3-01Mainboard Lantai 3 L3-SHT-01-T SHT20 1 Temperature 29.20 °C
2860 06/09/2026 21:00:00 MB-L5-01Mainboard Lantai 5 L5-HFT-01 Heat Flow Temperature 1 25.20 °C
2861 06/09/2026 21:00:00 AC-REMOTE-01Remote AC AC-POWER AC Power State 1.00 state
2862 06/09/2026 21:00:00 MB-L5-01Mainboard Lantai 5 L5-BGT-01 Black Globe Temperature 1 27.40 °C
2863 06/09/2026 21:00:00 MB-L5-01Mainboard Lantai 5 L5-RAD-01 Radiation 1 1.00 W/m²
2864 06/09/2026 21:00:00 MB-L3-01Mainboard Lantai 3 L3-AI-06 Analog Input 6 3.12 V
2865 06/09/2026 21:00:00 MB-L3-01Mainboard Lantai 3 L3-SHT-02-RH SHT20 2 Humidity 44.30 %RH
2866 06/09/2026 21:00:00 AC-REMOTE-01Remote AC AC-SETPOINT AC Set Temperature 23.00 °C
2867 06/09/2026 21:00:00 MB-L5-01Mainboard Lantai 5 L5-AI-01 Analog Input 1 3.05 V
2868 06/09/2026 21:00:00 PWR-L5-01Power Meter L5 PZEM 01 PZEM-L5-01-ENERGY PZEM L5-01 Energy 0.03 kWh
2869 06/09/2026 21:00:00 MB-L5-01Mainboard Lantai 5 L5-SHT-02-RH SHT20 2 Humidity 44.10 %RH
2870 06/09/2026 21:00:00 MB-L3-01Mainboard Lantai 3 L3-AI-03 Analog Input 3 3.12 V
2871 06/09/2026 21:00:00 AC-REMOTE-01Remote AC AC-MODE AC Operating Mode 1.00 code
2872 06/09/2026 21:00:00 AC-REMOTE-01Remote AC AC-FAN AC Fan Speed 0.00 code
2873 06/09/2026 21:00:00 MB-L3-01Mainboard Lantai 3 L3-LUX-02 Illuminance / LUX 2 0.30 lux
2874 06/09/2026 21:00:00 WS-MOD-01Weather Station Module WS-TEMP Suhu Udara 21.30 °C
2875 06/09/2026 21:00:00 PWR-L5-02Power Meter L5 PZEM 02 PZEM-L5-02-FREQ PZEM L5-02 Frequency 50.00 Hz
2876 06/09/2026 21:00:00 PWR-L5-02Power Meter L5 PZEM 02 PZEM-L5-02-VOLT PZEM L5-02 Voltage 226.80 V
2877 06/09/2026 21:00:00 MB-L5-01Mainboard Lantai 5 L5-AI-06 Analog Input 6 3.05 V
2878 06/09/2026 21:00:00 MB-L5-01Mainboard Lantai 5 L5-RAD-02 Radiation 2 1.00 W/m²
2879 06/09/2026 21:00:00 MB-L3-01Mainboard Lantai 3 L3-LUX-03 Illuminance / LUX 3 0.30 lux
2880 06/09/2026 21:00:00 PWR-L5-01Power Meter L5 PZEM 01 PZEM-L5-01-FREQ PZEM L5-01 Frequency 50.00 Hz
2881 06/09/2026 21:00:00 MB-L5-01Mainboard Lantai 5 L5-BGT-03 Black Globe Temperature 3 27.20 °C
2882 06/09/2026 21:00:00 MB-L5-01Mainboard Lantai 5 L5-SHT-03-T SHT20 3 Temperature 29.50 °C
2883 06/09/2026 21:00:00 MB-L5-01Mainboard Lantai 5 L5-SHT-01-T SHT20 1 Temperature 29.50 °C
2884 06/09/2026 21:00:00 MB-L5-01Mainboard Lantai 5 L5-AI-03 Analog Input 3 3.05 V
2885 06/09/2026 21:00:00 WS-MOD-01Weather Station Module WS-DIR Arah Angin 168.80 °
2886 06/09/2026 21:00:00 MB-L5-01Mainboard Lantai 5 L5-ST-02 Surface Temperature 2 25.20 °C
2887 06/09/2026 21:00:00 MB-L5-01Mainboard Lantai 5 L5-SHT-01-RH SHT20 1 Humidity 44.70 %RH
2888 06/09/2026 21:00:00 MB-L3-01Mainboard Lantai 3 L3-AI-05 Analog Input 5 3.12 V
2889 06/09/2026 21:00:00 MB-L3-01Mainboard Lantai 3 L3-AI-02 Analog Input 2 3.12 V
2890 06/09/2026 21:00:00 WS-MOD-01Weather Station Module WS-WIND Kecepatan Angin 4.86 m/s
2891 06/09/2026 21:00:00 MB-L3-01Mainboard Lantai 3 L3-LUX-06 Illuminance / LUX 6 0.30 lux
2892 06/09/2026 21:00:00 PWR-L5-02Power Meter L5 PZEM 02 PZEM-L5-02-ENERGY PZEM L5-02 Energy 0.04 kWh
2893 06/09/2026 21:00:00 PWR-L5-01Power Meter L5 PZEM 01 PZEM-L5-01-PF PZEM L5-01 Power Factor 0.38
2894 06/09/2026 21:00:00 MB-L3-01Mainboard Lantai 3 L3-LUX-05 Illuminance / LUX 5 0.40 lux
2895 06/09/2026 21:00:00 MB-L3-01Mainboard Lantai 3 L3-SHT-02-T SHT20 2 Temperature 29.40 °C
2896 06/09/2026 21:00:00 PWR-L5-01Power Meter L5 PZEM 01 PZEM-L5-01-VOLT PZEM L5-01 Voltage 227.00 V
2897 06/09/2026 21:00:00 MB-L5-01Mainboard Lantai 5 L5-SHT-03-RH SHT20 3 Humidity 44.70 %RH
2898 06/09/2026 21:00:00 MB-L3-01Mainboard Lantai 3 L3-SHT-03-RH SHT20 3 Humidity 44.30 %RH
2899 06/09/2026 21:00:00 MB-L5-01Mainboard Lantai 5 L5-LUX-03 Illuminance / LUX 3 0.20 lux
2900 06/09/2026 21:00:00 MB-L5-01Mainboard Lantai 5 L5-LUX-02 Illuminance / LUX 2 0.20 lux
Menampilkan maksimal 100 data per halaman